createdAt,value
2022-07-28T00:00:51.645Z,80.44
2022-07-28T00:01:51.669Z,81.11
2022-07-28T00:02:51.540Z,81.45
2022-07-28T00:03:51.412Z,81.68
2022-07-28T00:04:51.339Z,81.88
2022-07-28T00:05:51.260Z,81.59
2022-07-28T00:06:51.179Z,81.59
2022-07-28T00:07:51.103Z,81.88
2022-07-28T00:08:51.031Z,82.74
2022-07-28T00:09:50.949Z,82.93
2022-07-28T00:10:50.874Z,82.83
2022-07-28T00:11:54.540Z,81.59
2022-07-28T00:12:50.722Z,81.78
2022-07-28T00:13:50.643Z,82.89
2022-07-28T00:14:50.563Z,83.37
2022-07-28T00:15:50.540Z,83.12
2022-07-28T00:16:50.446Z,82.64
2022-07-28T00:17:50.334Z,82.12
2022-07-28T00:18:50.260Z,82.60
2022-07-28T00:19:50.192Z,82.60
2022-07-28T00:20:50.107Z,83.37
2022-07-28T00:21:50.039Z,83.08
2022-07-28T00:22:49.948Z,83.50
2022-07-28T00:23:49.876Z,82.74
2022-07-28T00:24:49.794Z,82.74
2022-07-28T00:25:49.720Z,82.83
2022-07-28T00:26:49.639Z,82.07
2022-07-28T00:27:49.568Z,81.78
2022-07-28T00:28:49.489Z,80.59
2022-07-28T00:29:51.058Z,81.16
2022-07-28T00:30:49.333Z,81.74
2022-07-28T00:31:49.327Z,82.51
2022-07-28T00:32:49.177Z,82.79
2022-07-28T00:33:49.146Z,84.23
2022-07-28T00:34:49.024Z,84.70
2022-07-28T00:35:48.946Z,84.89
2022-07-28T00:36:48.875Z,85.18
2022-07-28T00:37:49.139Z,84.70
2022-07-28T00:38:48.968Z,84.42
2022-07-28T00:39:48.638Z,84.32
2022-07-28T00:40:48.567Z,83.84
2022-07-28T00:41:48.489Z,83.84
2022-07-28T00:42:48.409Z,83.75
2022-07-28T00:43:48.331Z,84.23
2022-07-28T00:44:48.256Z,83.75
2022-07-28T00:45:48.175Z,83.27
2022-07-28T00:46:48.192Z,83.17
2022-07-28T00:47:48.025Z,83.08
2022-07-28T00:48:47.969Z,83.08
2022-07-28T00:49:47.872Z,82.98
2022-07-28T00:50:47.792Z,83.37
2022-07-28T00:51:47.715Z,84.03
2022-07-28T00:52:47.643Z,82.70
2022-07-28T00:53:47.562Z,82.89
2022-07-28T00:54:47.486Z,82.60
2022-07-28T00:56:05.300Z,83.13
2022-07-28T00:56:47.336Z,84.47
2022-07-28T00:57:47.252Z,84.95
2022-07-28T00:58:47.171Z,84.66
2022-07-28T00:59:47.097Z,84.38
2022-07-28T01:00:47.019Z,85.24
2022-07-28T01:01:47.045Z,85.75
2022-07-28T01:02:46.973Z,85.38
2022-07-28T01:03:46.792Z,86.04
2022-07-28T01:04:46.713Z,85.47
2022-07-28T01:05:46.633Z,85.38
2022-07-28T01:06:46.558Z,84.99
2022-07-28T01:07:46.477Z,84.99
2022-07-28T01:08:46.398Z,84.70
2022-07-28T01:09:46.326Z,84.32
2022-07-28T01:10:46.253Z,84.85
2022-07-28T01:11:46.170Z,85.71
2022-07-28T01:12:46.090Z,84.56
2022-07-28T01:13:46.022Z,84.47
2022-07-28T01:14:45.938Z,84.19
2022-07-28T01:15:45.917Z,85.33
2022-07-28T01:16:45.785Z,86.00
2022-07-28T01:17:45.703Z,86.00
2022-07-28T01:18:45.628Z,86.00
2022-07-28T01:19:45.551Z,85.71
2022-07-28T01:20:45.477Z,84.56
2022-07-28T01:21:45.396Z,84.47
2022-07-28T01:22:45.317Z,85.42
2022-07-28T01:23:45.242Z,85.86
2022-07-28T01:24:45.164Z,86.24
2022-07-28T01:25:48.447Z,86.24
2022-07-28T01:26:45.012Z,86.63
2022-07-28T01:27:44.930Z,86.24
2022-07-28T01:28:44.855Z,86.82
2022-07-28T01:29:44.777Z,85.96
2022-07-28T01:30:44.741Z,86.24
2022-07-28T01:31:44.716Z,88.25
2022-07-28T01:32:44.544Z,88.34
2022-07-28T01:33:44.467Z,88.34
2022-07-28T01:34:44.391Z,88.44
2022-07-28T01:35:44.313Z,89.01
2022-07-28T01:36:44.234Z,88.82
2022-07-28T01:37:44.159Z,89.34
2022-07-28T01:38:44.078Z,90.11
2022-07-28T01:39:44.005Z,90.49
2022-07-28T01:40:43.921Z,90.30
2022-07-28T01:41:43.853Z,90.49
2022-07-28T01:42:43.769Z,90.30
2022-07-28T01:43:43.695Z,89.82
2022-07-28T01:44:43.614Z,89.63
2022-07-28T01:45:43.536Z,89.25
2022-07-28T01:46:43.513Z,89.34
2022-07-28T01:47:43.382Z,89.34
2022-07-28T01:48:43.381Z,88.48
2022-07-28T01:49:43.225Z,88.39
2022-07-28T01:50:43.148Z,88.20
2022-07-28T01:51:43.072Z,88.58
2022-07-28T01:52:42.994Z,88.34
2022-07-28T01:53:42.917Z,87.66
2022-07-28T01:54:42.837Z,88.24
2022-07-28T01:55:42.766Z,87.76
2022-07-28T01:56:42.686Z,87.66
2022-07-28T01:57:42.609Z,87.76
2022-07-28T01:58:42.527Z,87.38
2022-07-28T01:59:42.452Z,87.38
2022-07-28T02:00:42.374Z,87.09
2022-07-28T02:01:42.412Z,88.15
2022-07-28T02:02:42.223Z,88.15
2022-07-28T02:03:42.156Z,88.34
2022-07-28T02:04:42.113Z,88.72
2022-07-28T02:05:41.989Z,89.10
2022-07-28T02:06:41.910Z,88.53
2022-07-28T02:07:41.834Z,87.86
2022-07-28T02:08:41.753Z,87.76
2022-07-28T02:09:41.678Z,87.48
2022-07-28T02:10:41.597Z,87.48
2022-07-28T02:11:41.521Z,87.57
2022-07-28T02:12:41.451Z,87.38
2022-07-28T02:13:41.370Z,87.09
2022-07-28T02:14:41.286Z,87.38
2022-07-28T02:15:41.305Z,87.38
2022-07-28T02:16:41.134Z,86.90
2022-07-28T02:17:41.060Z,87.38
2022-07-28T02:18:40.981Z,87.00
2022-07-28T02:19:40.905Z,87.19
2022-07-28T02:20:40.821Z,87.29
2022-07-28T02:21:40.747Z,88.15
2022-07-28T02:22:40.672Z,88.62
2022-07-28T02:23:40.590Z,88.53
2022-07-28T02:24:40.512Z,88.81
2022-07-28T02:25:40.437Z,88.53
2022-07-28T02:26:40.364Z,88.43
2022-07-28T02:27:40.286Z,88.91
2022-07-28T02:28:40.207Z,88.34
2022-07-28T02:29:50.729Z,88.43
2022-07-28T02:30:40.087Z,88.34
2022-07-28T02:31:41.980Z,88.62
2022-07-28T02:32:40.888Z,88.58
2022-07-28T02:34:00.314Z,89.15
2022-07-28T02:34:39.739Z,89.73
2022-07-28T02:35:39.663Z,89.82
2022-07-28T02:36:41.479Z,89.92
2022-07-28T02:37:39.505Z,89.82
2022-07-28T02:38:39.427Z,89.92
2022-07-28T02:39:39.354Z,90.01
2022-07-28T02:40:39.277Z,90.01
2022-07-28T02:41:39.207Z,89.73
2022-07-28T02:42:39.119Z,89.44
2022-07-28T02:43:49.028Z,89.73
2022-07-28T02:44:38.965Z,90.01
2022-07-28T02:45:38.887Z,90.01
2022-07-28T02:46:38.850Z,89.92
2022-07-28T02:47:38.738Z,88.96
2022-07-28T02:48:38.708Z,88.39
2022-07-28T02:49:38.575Z,87.72
2022-07-28T02:50:38.496Z,86.86
2022-07-28T02:51:38.429Z,86.76
2022-07-28T02:52:38.346Z,87.62
2022-07-28T02:53:38.265Z,87.62
2022-07-28T02:54:38.189Z,88.48
2022-07-28T02:55:38.113Z,89.06
2022-07-28T02:56:38.033Z,88.87
2022-07-28T02:57:37.964Z,89.15
2022-07-28T02:58:37.892Z,89.92
2022-07-28T02:59:37.802Z,90.49
2022-07-28T03:00:37.723Z,90.59
2022-07-28T03:01:37.716Z,90.01
2022-07-28T03:02:37.570Z,89.25
2022-07-28T03:03:41.298Z,90.01
2022-07-28T03:04:37.476Z,90.01
2022-07-28T03:05:37.382Z,90.49
2022-07-28T03:06:37.256Z,90.68
2022-07-28T03:07:37.184Z,90.83
2022-07-28T03:08:37.107Z,91.16
2022-07-28T03:09:37.025Z,91.25
2022-07-28T03:10:36.949Z,91.16
2022-07-28T03:11:36.874Z,90.39
2022-07-28T03:12:36.802Z,90.49
2022-07-28T03:13:36.716Z,90.11
2022-07-28T03:14:36.642Z,90.30
2022-07-28T03:15:36.564Z,89.82
2022-07-28T03:16:36.510Z,89.82
2022-07-28T03:17:36.406Z,89.06
2022-07-28T03:18:36.328Z,89.92
2022-07-28T03:19:36.252Z,90.11
2022-07-28T03:20:36.169Z,90.30
2022-07-28T03:21:36.092Z,90.49
2022-07-28T03:22:36.015Z,90.88
2022-07-28T03:23:35.968Z,90.49
2022-07-28T03:24:35.861Z,90.59
2022-07-28T03:25:35.784Z,90.45
2022-07-28T03:26:35.707Z,91.69
2022-07-28T03:27:35.630Z,91.11
2022-07-28T03:28:35.561Z,91.35
2022-07-28T03:29:35.479Z,91.54
2022-07-28T03:30:35.445Z,91.64
2022-07-28T03:31:35.317Z,91.35
2022-07-28T03:32:35.245Z,91.54
2022-07-28T03:33:35.163Z,91.74
2022-07-28T03:34:35.082Z,91.54
2022-07-28T03:35:35.008Z,91.25
2022-07-28T03:36:34.931Z,91.35
2022-07-28T03:37:34.855Z,91.35
2022-07-28T03:38:34.774Z,92.11
2022-07-28T03:39:34.694Z,92.50
2022-07-28T03:40:34.617Z,92.11
2022-07-28T03:41:34.542Z,92.21
2022-07-28T03:42:34.461Z,92.30
2022-07-28T03:43:34.384Z,92.26
2022-07-28T03:44:34.307Z,92.79
2022-07-28T03:45:34.257Z,93.36
2022-07-28T03:46:34.185Z,92.16
2022-07-28T03:47:34.078Z,91.11
2022-07-28T03:48:34.040Z,91.11
2022-07-28T03:49:33.916Z,91.50
2022-07-28T03:50:33.844Z,92.26
2022-07-28T03:51:33.762Z,92.26
2022-07-28T03:52:33.690Z,92.55
2022-07-28T03:53:33.607Z,92.55
2022-07-28T03:54:33.529Z,92.16
2022-07-28T03:55:33.450Z,92.36
2022-07-28T03:56:33.381Z,92.64
2022-07-28T03:57:33.297Z,93.31
2022-07-28T03:58:33.222Z,93.70
2022-07-28T03:59:33.142Z,94.07
2022-07-28T04:00:33.064Z,94.07
2022-07-28T04:01:33.088Z,93.50
2022-07-28T04:02:32.967Z,93.60
2022-07-28T04:03:43.228Z,92.93
2022-07-28T04:04:32.752Z,93.70
2022-07-28T04:05:32.677Z,93.70
2022-07-28T04:06:32.594Z,93.88
2022-07-28T04:07:32.519Z,92.69
2022-07-28T04:08:32.443Z,92.45
2022-07-28T04:09:32.364Z,91.30
2022-07-28T04:10:32.284Z,88.82
2022-07-28T04:11:32.209Z,88.34
2022-07-28T04:12:32.132Z,88.63
2022-07-28T04:13:32.141Z,89.54
2022-07-28T04:14:31.976Z,90.50
2022-07-28T04:15:31.898Z,91.74
2022-07-28T04:16:31.860Z,91.83
2022-07-28T04:17:31.740Z,93.79
2022-07-28T04:18:31.671Z,95.12
2022-07-28T04:19:31.584Z,95.61
2022-07-28T04:20:31.506Z,95.03
2022-07-28T04:21:31.437Z,95.41
2022-07-28T04:22:31.348Z,95.12
2022-07-28T04:23:31.281Z,95.12
2022-07-28T04:24:31.196Z,93.70
2022-07-28T04:25:31.120Z,92.64
2022-07-28T04:26:31.038Z,92.45
2022-07-28T04:27:30.965Z,91.88
2022-07-28T04:28:30.882Z,92.55
2022-07-28T04:29:30.805Z,93.12
2022-07-28T04:30:30.777Z,93.50
2022-07-28T04:31:30.724Z,93.79
2022-07-28T04:32:30.572Z,93.98
2022-07-28T04:33:30.499Z,93.88
2022-07-28T04:34:30.416Z,93.70
2022-07-28T04:35:30.345Z,94.46
2022-07-28T04:36:30.259Z,94.36
2022-07-28T04:37:32.560Z,94.27
2022-07-28T04:38:30.110Z,94.55
2022-07-28T04:39:30.031Z,94.46
2022-07-28T04:40:29.951Z,94.55
2022-07-28T04:41:29.875Z,94.84
2022-07-28T04:42:29.794Z,95.51
2022-07-28T04:43:29.714Z,95.79
2022-07-28T04:44:29.639Z,95.51
2022-07-28T04:45:29.565Z,95.51
2022-07-28T04:46:29.546Z,95.79
2022-07-28T04:47:29.405Z,96.27
2022-07-28T04:48:29.327Z,96.66
2022-07-28T04:49:29.252Z,96.84
2022-07-28T04:50:29.167Z,96.94
2022-07-28T04:51:29.096Z,96.66
2022-07-28T04:52:29.018Z,96.27
2022-07-28T04:53:28.935Z,96.66
2022-07-28T04:54:28.856Z,96.56
2022-07-28T04:55:28.781Z,96.84
2022-07-28T04:56:28.705Z,97.94
2022-07-28T04:57:28.627Z,98.42
2022-07-28T04:58:31.024Z,99.66
2022-07-28T04:59:28.471Z,99.57
2022-07-28T05:00:28.391Z,98.80
2022-07-28T05:01:28.384Z,98.90
2022-07-28T05:02:28.239Z,98.42
2022-07-28T05:03:30.493Z,98.04
2022-07-28T05:04:28.128Z,97.94
2022-07-28T05:05:28.005Z,98.23
2022-07-28T05:06:27.927Z,97.94
2022-07-28T05:07:27.848Z,99.04
2022-07-28T05:08:27.773Z,99.43
2022-07-28T05:09:27.690Z,98.57
2022-07-28T05:10:27.615Z,98.47
2022-07-28T05:11:27.537Z,98.28
2022-07-28T05:12:27.465Z,98.18
2022-07-28T05:13:33.395Z,98.18
2022-07-28T05:14:27.304Z,98.28
2022-07-28T05:15:27.229Z,97.42
2022-07-28T05:16:27.198Z,96.75
2022-07-28T05:17:27.070Z,96.56
2022-07-28T05:18:26.990Z,97.13
2022-07-28T05:19:26.915Z,97.90
2022-07-28T05:20:26.841Z,97.52
2022-07-28T05:21:26.760Z,97.80
2022-07-28T05:22:26.681Z,97.90
2022-07-28T05:23:26.606Z,98.09
2022-07-28T05:24:26.524Z,97.80
2022-07-28T05:25:26.449Z,97.71
2022-07-28T05:26:26.368Z,97.13
2022-07-28T05:27:26.297Z,96.56
2022-07-28T05:28:26.216Z,95.94
2022-07-28T05:29:26.137Z,95.94
2022-07-28T05:30:26.055Z,95.07
2022-07-28T05:31:26.019Z,96.22
2022-07-28T05:32:25.940Z,95.17
2022-07-28T05:33:31.958Z,95.36
2022-07-28T05:34:25.756Z,94.79
2022-07-28T05:35:25.671Z,94.60
2022-07-28T05:36:25.595Z,94.60
2022-07-28T05:37:25.514Z,94.60
2022-07-28T05:38:25.445Z,95.17
2022-07-28T05:39:25.361Z,95.17
2022-07-28T05:40:25.282Z,94.65
2022-07-28T05:41:25.209Z,94.21
2022-07-28T05:42:25.133Z,93.98
2022-07-28T05:43:25.054Z,93.98
2022-07-28T05:44:24.980Z,93.26
2022-07-28T05:45:24.953Z,93.02
2022-07-28T05:46:24.876Z,92.92
2022-07-28T05:47:24.741Z,93.02
2022-07-28T05:48:24.665Z,92.44
2022-07-28T05:49:24.678Z,92.35
2022-07-28T05:50:24.508Z,93.50
2022-07-28T05:51:24.434Z,93.21
2022-07-28T05:52:24.358Z,92.21
2022-07-28T05:53:24.284Z,91.53
2022-07-28T05:54:24.204Z,91.63
2022-07-28T05:55:24.124Z,91.34
2022-07-28T05:56:24.048Z,90.29
2022-07-28T05:57:23.976Z,88.95
2022-07-28T05:58:23.890Z,87.99
2022-07-28T05:59:23.813Z,88.42
2022-07-28T06:00:23.736Z,86.41
2022-07-28T06:01:23.733Z,85.45
2022-07-28T06:02:23.636Z,85.35
2022-07-28T06:03:23.507Z,85.16
2022-07-28T06:04:27.297Z,85.25
2022-07-28T06:05:23.354Z,84.97
2022-07-28T06:06:23.274Z,84.82
2022-07-28T06:07:23.201Z,84.25
2022-07-28T06:08:23.118Z,82.81
2022-07-28T06:09:23.044Z,82.71
2022-07-28T06:10:22.967Z,82.14
2022-07-28T06:11:23.212Z,82.14
2022-07-28T06:12:22.814Z,81.56
2022-07-28T06:13:22.736Z,81.56
2022-07-28T06:14:22.659Z,80.64
2022-07-28T06:15:22.588Z,80.74
2022-07-28T06:16:22.641Z,80.26
2022-07-28T06:17:22.428Z,80.07
2022-07-28T06:18:22.357Z,80.16
2022-07-28T06:19:22.274Z,80.35
2022-07-28T06:20:22.204Z,80.35
2022-07-28T06:21:22.118Z,79.21
2022-07-28T06:22:22.048Z,79.14
2022-07-28T06:23:21.969Z,79.05
2022-07-28T06:24:21.897Z,78.67
2022-07-28T06:25:21.815Z,78.57
2022-07-28T06:26:23.577Z,78.09
2022-07-28T06:27:21.659Z,78.19
2022-07-28T06:28:21.586Z,77.13
2022-07-28T06:29:21.507Z,77.23
2022-07-28T06:30:21.438Z,77.80
2022-07-28T06:31:21.421Z,77.71
2022-07-28T06:32:21.279Z,77.90
2022-07-28T06:33:21.264Z,77.90
2022-07-28T06:34:21.139Z,77.90
2022-07-28T06:35:21.047Z,77.51
2022-07-28T06:36:20.974Z,77.42
2022-07-28T06:37:20.897Z,78.00
2022-07-28T06:38:20.818Z,78.19
2022-07-28T06:39:20.745Z,78.70
2022-07-28T06:40:20.670Z,78.03
2022-07-28T06:41:20.593Z,76.98
2022-07-28T06:42:20.510Z,77.17
2022-07-28T06:43:20.438Z,77.65
2022-07-28T06:44:20.667Z,78.13
2022-07-28T06:45:21.245Z,77.26
2022-07-28T06:46:20.320Z,76.59
2022-07-28T06:47:20.206Z,76.69
2022-07-28T06:48:20.054Z,76.59
2022-07-28T06:49:20.216Z,76.50
2022-07-28T06:50:26.223Z,76.25
2022-07-28T06:51:19.896Z,75.96
2022-07-28T06:52:19.748Z,76.06
2022-07-28T06:53:19.675Z,75.77
2022-07-28T06:54:19.831Z,75.57
2022-07-28T06:55:19.520Z,75.57
2022-07-28T06:56:19.444Z,75.20
2022-07-28T06:57:19.366Z,75.87
2022-07-28T06:58:19.290Z,74.23
2022-07-28T06:59:19.251Z,74.46
2022-07-28T07:00:19.153Z,74.08
2022-07-28T07:01:19.101Z,73.79
2022-07-28T07:02:18.986Z,73.79
2022-07-28T07:03:18.912Z,73.31
2022-07-28T07:04:19.327Z,72.92
2022-07-28T07:05:18.760Z,73.11
2022-07-28T07:06:18.684Z,73.06
2022-07-28T07:07:18.613Z,72.38
2022-07-28T07:08:18.530Z,72.29
2022-07-28T07:09:18.458Z,71.81
2022-07-28T07:10:18.380Z,71.81
2022-07-28T07:11:18.318Z,71.91
2022-07-28T07:12:18.227Z,71.84
2022-07-28T07:13:18.159Z,71.36
2022-07-28T07:14:18.755Z,71.46
2022-07-28T07:15:18.002Z,71.17
2022-07-28T07:16:17.986Z,70.30
2022-07-28T07:17:17.856Z,69.82
2022-07-28T07:18:17.770Z,69.63
2022-07-28T07:19:17.700Z,70.11
2022-07-28T07:20:18.374Z,70.30
2022-07-28T07:21:17.550Z,70.21
2022-07-28T07:22:17.468Z,69.57
2022-07-28T07:23:17.397Z,70.53
2022-07-28T07:24:17.758Z,70.53
2022-07-28T07:25:17.251Z,68.80
2022-07-28T07:26:17.176Z,69.18
2022-07-28T07:27:17.099Z,68.93
2022-07-28T07:28:17.019Z,68.16
2022-07-28T07:29:16.948Z,67.39
2022-07-28T07:30:16.874Z,67.68
2022-07-28T07:31:16.843Z,67.68
2022-07-28T07:32:16.717Z,67.00
2022-07-28T07:33:16.643Z,66.36
2022-07-28T07:34:17.100Z,66.27
2022-07-28T07:35:16.494Z,66.85
2022-07-28T07:36:16.419Z,66.46
2022-07-28T07:37:16.342Z,66.55
2022-07-28T07:38:16.269Z,66.17
2022-07-28T07:39:16.195Z,65.81
2022-07-28T07:40:16.117Z,66.01
2022-07-28T07:41:16.043Z,65.63
2022-07-28T07:42:15.970Z,66.11
2022-07-28T07:43:15.896Z,65.27
2022-07-28T07:44:16.162Z,64.89
2022-07-28T07:45:15.750Z,64.79
2022-07-28T07:46:15.718Z,64.31
2022-07-28T07:47:15.594Z,64.43
2022-07-28T07:48:15.523Z,64.31
2022-07-28T07:49:15.478Z,65.01
2022-07-28T07:50:15.378Z,64.63
2022-07-28T07:51:15.862Z,63.76
2022-07-28T07:52:15.226Z,63.98
2022-07-28T07:53:15.152Z,62.70
2022-07-28T07:54:15.373Z,62.89
2022-07-28T07:55:15.005Z,63.31
2022-07-28T07:56:14.928Z,63.31
2022-07-28T07:57:14.854Z,63.60
2022-07-28T07:58:14.779Z,63.70
2022-07-28T07:59:14.710Z,62.66
2022-07-28T08:00:29.032Z,62.18
2022-07-28T08:01:14.583Z,61.60
2022-07-28T08:02:14.542Z,61.31
2022-07-28T08:03:14.412Z,61.83
2022-07-28T08:04:14.825Z,60.76
2022-07-28T08:05:14.263Z,61.63
2022-07-28T08:06:14.191Z,61.54
2022-07-28T08:07:14.119Z,60.67
2022-07-28T08:08:14.044Z,61.73
2022-07-28T08:09:13.969Z,60.96
2022-07-28T08:10:13.900Z,61.34
2022-07-28T08:11:13.823Z,61.15
2022-07-28T08:12:13.756Z,60.76
2022-07-28T08:13:13.676Z,61.63
2022-07-28T08:14:13.914Z,61.54
2022-07-28T08:15:13.531Z,61.63
2022-07-28T08:16:13.520Z,61.05
2022-07-28T08:17:13.390Z,61.73
2022-07-28T08:18:13.313Z,61.15
2022-07-28T08:19:13.243Z,61.63
2022-07-28T08:20:13.174Z,61.86
2022-07-28T08:21:13.161Z,61.08
2022-07-28T08:22:13.023Z,60.41
2022-07-28T08:23:12.949Z,60.89
2022-07-28T08:24:13.104Z,59.95
2022-07-28T08:25:12.814Z,60.63
2022-07-28T08:26:12.733Z,60.53
2022-07-28T08:27:12.662Z,60.47
2022-07-28T08:28:12.585Z,59.69
2022-07-28T08:29:12.513Z,58.82
2022-07-28T08:30:12.446Z,58.82
2022-07-28T08:31:12.404Z,58.82
2022-07-28T08:32:12.296Z,58.34
2022-07-28T08:33:12.229Z,59.63
2022-07-28T08:34:31.337Z,59.63
2022-07-28T08:35:32.428Z,58.17
2022-07-28T08:36:12.011Z,58.37
2022-07-28T08:37:11.936Z,58.53
2022-07-28T08:38:11.865Z,58.34
2022-07-28T08:39:11.798Z,58.72
2022-07-28T08:40:11.721Z,58.53
2022-07-28T08:41:11.650Z,59.11
2022-07-28T08:42:11.581Z,58.44
2022-07-28T08:43:11.513Z,58.82
2022-07-28T08:44:11.546Z,59.72
2022-07-28T08:45:11.365Z,58.95
2022-07-28T08:46:11.353Z,58.65
2022-07-28T08:47:11.221Z,58.27
2022-07-28T08:48:11.148Z,57.88
2022-07-28T08:49:11.189Z,57.98
2022-07-28T08:50:11.011Z,58.56
2022-07-28T08:51:10.937Z,58.85
2022-07-28T08:52:10.864Z,58.39
2022-07-28T08:53:10.794Z,58.59
2022-07-28T08:54:10.865Z,58.98
2022-07-28T08:55:10.662Z,57.36
2022-07-28T08:56:10.580Z,56.39
2022-07-28T08:57:10.512Z,57.07
2022-07-28T08:58:10.436Z,57.45
2022-07-28T08:59:10.366Z,57.09
2022-07-28T09:00:10.293Z,56.23
2022-07-28T09:01:10.221Z,55.64
2022-07-28T09:02:10.188Z,56.61
2022-07-28T09:03:10.137Z,56.32
2022-07-28T09:04:10.012Z,55.35
2022-07-28T09:05:09.940Z,55.13
2022-07-28T09:06:09.873Z,55.52
2022-07-28T09:07:09.804Z,55.40
2022-07-28T09:08:09.727Z,56.46
2022-07-28T09:09:09.656Z,56.26
2022-07-28T09:10:09.591Z,56.87
2022-07-28T09:11:09.517Z,57.19
2022-07-28T09:12:09.447Z,56.23
2022-07-28T09:13:09.376Z,55.57
2022-07-28T09:14:09.304Z,54.60
2022-07-28T09:15:09.236Z,54.80
2022-07-28T09:16:09.212Z,55.28
2022-07-28T09:17:09.094Z,54.90
2022-07-28T09:18:09.021Z,54.60
2022-07-28T09:19:08.961Z,53.92
2022-07-28T09:20:11.131Z,54.48
2022-07-28T09:21:08.815Z,54.67
2022-07-28T09:22:08.744Z,55.62
2022-07-28T09:23:43.401Z,55.04
2022-07-28T09:24:08.607Z,54.55
2022-07-28T09:25:08.531Z,54.84
2022-07-28T09:26:12.576Z,55.26
2022-07-28T09:27:08.391Z,55.06
2022-07-28T09:28:08.329Z,54.67
2022-07-28T09:29:08.254Z,54.48
2022-07-28T09:30:08.183Z,53.99
2022-07-28T09:31:08.126Z,54.50
2022-07-28T09:32:08.094Z,54.21
2022-07-28T09:33:07.976Z,53.92
2022-07-28T09:34:07.905Z,53.73
2022-07-28T09:35:07.835Z,53.17
2022-07-28T09:36:07.764Z,53.37
2022-07-28T09:37:07.702Z,52.69
2022-07-28T09:38:07.628Z,52.42
2022-07-28T09:39:07.555Z,52.20
2022-07-28T09:40:07.484Z,52.40
2022-07-28T09:41:07.411Z,52.23
2022-07-28T09:42:07.349Z,51.91
2022-07-28T09:43:07.276Z,51.53
2022-07-28T09:44:07.208Z,51.91
2022-07-28T09:45:22.352Z,52.30
2022-07-28T09:46:07.205Z,51.43
2022-07-28T09:47:07.206Z,52.08
2022-07-28T09:48:07.146Z,52.76
2022-07-28T09:49:06.993Z,52.20
2022-07-28T09:50:06.896Z,52.18
2022-07-28T09:51:06.719Z,52.28
2022-07-28T09:52:06.654Z,53.17
2022-07-28T09:53:06.583Z,51.98
2022-07-28T09:54:06.513Z,52.20
2022-07-28T09:55:06.447Z,52.20
2022-07-28T09:56:06.376Z,52.47
2022-07-28T09:57:06.302Z,53.15
2022-07-28T09:58:06.235Z,52.30
2022-07-28T09:59:06.870Z,52.69
2022-07-28T10:00:06.098Z,52.30
2022-07-28T10:01:06.098Z,52.03
2022-07-28T10:02:06.053Z,51.75
2022-07-28T10:03:05.930Z,51.35
2022-07-28T10:04:05.822Z,50.56
2022-07-28T10:05:05.754Z,50.46
2022-07-28T10:06:05.688Z,50.94
2022-07-28T10:07:05.633Z,50.74
2022-07-28T10:08:05.551Z,51.14
2022-07-28T10:09:05.481Z,50.16
2022-07-28T10:10:05.409Z,50.16
2022-07-28T10:11:05.336Z,51.35
2022-07-28T10:12:05.270Z,51.16
2022-07-28T10:13:05.201Z,52.15
2022-07-28T10:14:05.130Z,51.18
2022-07-28T10:15:05.064Z,49.44
2022-07-28T10:16:05.030Z,50.24
2022-07-28T10:17:06.295Z,49.56
2022-07-28T10:18:04.862Z,48.90
2022-07-28T10:19:04.793Z,48.13
2022-07-28T10:20:04.721Z,47.44
2022-07-28T10:21:04.651Z,47.44
2022-07-28T10:22:04.588Z,48.22
2022-07-28T10:23:04.513Z,47.34
2022-07-28T10:24:04.449Z,47.08
2022-07-28T10:25:04.397Z,46.78
2022-07-28T10:26:04.313Z,46.50
2022-07-28T10:27:04.246Z,46.67
2022-07-28T10:28:04.176Z,46.47
2022-07-28T10:29:04.108Z,46.28
2022-07-28T10:30:04.038Z,46.37
2022-07-28T10:31:04.045Z,46.47
2022-07-28T10:32:03.911Z,46.96
2022-07-28T10:33:03.834Z,47.34
2022-07-28T10:34:03.770Z,46.96
2022-07-28T10:35:03.701Z,46.86
2022-07-28T10:36:03.644Z,47.25
2022-07-28T10:37:03.559Z,48.13
2022-07-28T10:38:03.502Z,47.17
2022-07-28T10:39:03.428Z,46.40
2022-07-28T10:40:09.412Z,46.81
2022-07-28T10:41:03.287Z,45.94
2022-07-28T10:42:03.222Z,45.84
2022-07-28T10:43:03.165Z,45.91
2022-07-28T10:44:03.088Z,46.30
2022-07-28T10:45:03.019Z,47.49
2022-07-28T10:46:06.196Z,45.89
2022-07-28T10:47:02.912Z,45.69
2022-07-28T10:48:02.818Z,46.06
2022-07-28T10:49:03.680Z,46.15
2022-07-28T10:50:02.686Z,46.55
2022-07-28T10:51:02.612Z,46.55
2022-07-28T10:52:08.725Z,46.81
2022-07-28T10:53:02.479Z,47.98
2022-07-28T10:54:02.415Z,47.91
2022-07-28T10:55:02.342Z,48.88
2022-07-28T10:56:02.272Z,49.78
2022-07-28T10:57:04.900Z,49.32
2022-07-28T10:58:11.649Z,49.22
2022-07-28T10:59:04.903Z,47.88
2022-07-28T11:00:12.321Z,48.97
2022-07-28T11:01:05.942Z,46.83
2022-07-28T11:02:01.930Z,45.95
2022-07-28T11:03:01.939Z,44.89
2022-07-28T11:04:01.809Z,44.96
2022-07-28T11:05:01.666Z,45.94
2022-07-28T11:06:01.600Z,46.11
2022-07-28T11:07:01.527Z,45.81
2022-07-28T11:08:01.472Z,46.71
2022-07-28T11:09:01.400Z,46.42
2022-07-28T11:10:01.326Z,44.96
2022-07-28T11:11:07.723Z,45.54
2022-07-28T11:12:01.195Z,45.64
2022-07-28T11:13:01.124Z,45.04
2022-07-28T11:14:01.073Z,45.23
2022-07-28T11:15:18.265Z,46.71
2022-07-28T11:16:00.924Z,46.13
2022-07-28T11:17:00.971Z,45.08
2022-07-28T11:18:00.796Z,44.30
2022-07-28T11:19:00.719Z,44.18
2022-07-28T11:20:16.821Z,44.98
2022-07-28T11:21:00.765Z,44.30
2022-07-28T11:22:00.519Z,45.10
2022-07-28T11:23:00.454Z,44.42
2022-07-28T11:24:00.387Z,43.43
2022-07-28T11:25:00.319Z,43.81
2022-07-28T11:26:00.255Z,44.35
2022-07-28T11:27:04.045Z,44.26
2022-07-28T11:28:00.117Z,44.62
2022-07-28T11:29:00.058Z,45.01
2022-07-28T11:29:59.986Z,44.99
2022-07-28T11:30:59.979Z,45.28
2022-07-28T11:31:59.851Z,46.08
2022-07-28T11:32:59.794Z,46.45
2022-07-28T11:33:59.721Z,46.47
2022-07-28T11:34:59.649Z,46.37
2022-07-28T11:35:59.602Z,45.79
2022-07-28T11:36:59.516Z,44.82
2022-07-28T11:37:59.449Z,45.04
2022-07-28T11:38:59.379Z,44.65
2022-07-28T11:39:59.313Z,44.72
2022-07-28T11:40:59.254Z,44.53
2022-07-28T11:41:59.193Z,44.94
2022-07-28T11:42:59.111Z,45.14
2022-07-28T11:43:59.058Z,44.26
2022-07-28T11:44:58.987Z,44.38
2022-07-28T11:45:58.988Z,44.28
2022-07-28T11:46:58.847Z,44.06
2022-07-28T11:47:58.787Z,43.38
2022-07-28T11:48:58.768Z,44.26
2022-07-28T11:49:58.642Z,44.06
2022-07-28T11:50:58.576Z,43.38
2022-07-28T11:51:58.509Z,43.77
2022-07-28T11:52:58.442Z,43.38
2022-07-28T11:53:58.372Z,43.19
2022-07-28T11:54:58.324Z,43.29
2022-07-28T11:56:02.942Z,44.57
2022-07-28T11:56:58.175Z,45.47
2022-07-28T11:57:58.105Z,44.13
2022-07-28T11:58:58.040Z,42.28
2022-07-28T11:59:57.971Z,41.30
2022-07-28T12:00:57.901Z,41.28
2022-07-28T12:01:57.895Z,42.06
2022-07-28T12:02:57.769Z,42.06
2022-07-28T12:03:57.708Z,43.05
2022-07-28T12:04:57.701Z,42.06
2022-07-28T12:05:57.568Z,42.65
2022-07-28T12:06:57.505Z,41.96
2022-07-28T12:07:57.439Z,42.35
2022-07-28T12:08:57.370Z,41.48
2022-07-28T12:09:57.304Z,41.96
2022-07-28T12:10:57.318Z,42.06
2022-07-28T12:11:57.170Z,43.52
2022-07-28T12:12:57.126Z,43.44
2022-07-28T12:13:57.035Z,44.03
2022-07-28T12:14:56.970Z,43.37
2022-07-28T12:15:56.903Z,43.49
2022-07-28T12:16:56.894Z,41.75
2022-07-28T12:17:56.772Z,40.17
2022-07-28T12:18:56.716Z,40.37
2022-07-28T12:19:56.643Z,40.27
2022-07-28T12:20:58.567Z,40.47
2022-07-28T12:21:56.502Z,40.08
2022-07-28T12:22:56.459Z,40.86
2022-07-28T12:23:56.371Z,41.44
2022-07-28T12:24:56.300Z,41.63
2022-07-28T12:25:56.247Z,42.32
2022-07-28T12:26:56.169Z,41.44
2022-07-28T12:27:56.110Z,40.17
2022-07-28T12:28:56.045Z,40.08
2022-07-28T12:29:55.974Z,40.73
2022-07-28T12:30:55.906Z,41.03
2022-07-28T12:31:56.083Z,40.62
2022-07-28T12:32:55.771Z,40.89
2022-07-28T12:33:55.709Z,40.70
2022-07-28T12:34:55.641Z,42.04
2022-07-28T12:35:55.575Z,42.14
2022-07-28T12:36:55.503Z,41.94
2022-07-28T12:37:55.445Z,42.33
2022-07-28T12:38:55.375Z,42.24
2022-07-28T12:39:55.309Z,42.63
2022-07-28T12:40:55.239Z,42.43
2022-07-28T12:41:55.175Z,42.63
2022-07-28T12:42:55.110Z,42.82
2022-07-28T12:43:55.044Z,42.82
2022-07-28T12:44:54.978Z,42.14
2022-07-28T12:45:55.000Z,42.45
2022-07-28T12:46:54.840Z,41.55
2022-07-28T12:47:54.778Z,41.94
2022-07-28T12:48:54.732Z,41.75
2022-07-28T12:49:58.532Z,40.97
2022-07-28T12:50:54.580Z,40.68
2022-07-28T12:51:54.507Z,41.16